Time;durP1;ratioP1;P1;durP2;ratioP2;P2;SDS_P1;SDS_P2;PMS_P1;PMS_P2;Temp;Humidity;BMP_temperature;BMP_pressure;BME280_temperature;BME280_humidity;BME280_pressure;Samples;Min_cycle;Max_cycle;Signal;HPM_P1;HPM_P2
2023/12/25 00:01:41;;;;;;;11.82;3.15;;;12.60;99.90;;;;;;5089478;28;20047;-76
2023/12/25 00:04:07;;;;;;;11.40;2.05;;;12.40;99.90;;;;;;5103371;28;20047;-77
2023/12/25 00:06:32;;;;;;;11.70;2.70;;;12.60;99.90;;;;;;5144530;27;20043;-79
2023/12/25 00:08:58;;;;;;;13.73;2.42;;;12.40;99.90;;;;;;5144849;27;20136;-76
2023/12/25 00:11:24;;;;;;;13.88;2.80;;;12.40;99.90;;;;;;5110253;28;20054;-77
2023/12/25 00:13:52;;;;;;;12.75;2.25;;;12.40;99.90;;;;;;5110306;28;20050;-76
2023/12/25 00:16:18;;;;;;;17.58;3.90;;;12.60;99.90;;;;;;5096799;28;20048;-77
2023/12/25 00:18:44;;;;;;;11.88;2.33;;;12.70;99.90;;;;;;5072913;28;20043;-76
2023/12/25 00:21:09;;;;;;;15.93;3.22;;;12.40;99.90;;;;;;5089727;28;20048;-77
2023/12/25 00:23:35;;;;;;;15.48;2.80;;;12.40;99.90;;;;;;5072893;28;20044;-77
2023/12/25 00:26:01;;;;;;;14.70;2.70;;;12.50;99.90;;;;;;5073494;28;20083;-76
2023/12/25 00:28:26;;;;;;;12.98;3.45;;;12.60;99.90;;;;;;5112149;28;20487;-77
2023/12/25 00:30:52;;;;;;;11.75;2.60;;;12.50;99.90;;;;;;5092953;28;20040;-77
2023/12/25 00:33:18;;;;;;;14.45;2.70;;;12.40;99.90;;;;;;5109315;28;20043;-77
2023/12/25 00:35:43;;;;;;;11.57;2.15;;;12.40;99.90;;;;;;5132542;27;20040;-77
2023/12/25 00:38:09;;;;;;;14.40;2.75;;;12.50;99.90;;;;;;5081402;28;20047;-76
2023/12/25 00:40:35;;;;;;;13.63;2.47;;;12.40;99.90;;;;;;5107947;28;20535;-77
2023/12/25 00:43:00;;;;;;;13.68;2.33;;;12.60;99.90;;;;;;5109877;28;20058;-77
2023/12/25 00:45:26;;;;;;;13.80;2.50;;;12.40;99.90;;;;;;5142674;27;20036;-77
2023/12/25 00:47:52;;;;;;;12.95;2.58;;;12.50;99.90;;;;;;5088324;28;20105;-77
2023/12/25 00:50:17;;;;;;;17.17;3.22;;;12.50;99.90;;;;;;5127139;27;20044;-78
2023/12/25 00:52:43;;;;;;;11.57;2.38;;;12.50;99.90;;;;;;5138090;27;20040;-77
2023/12/25 00:55:09;;;;;;;12.25;2.20;;;12.30;99.90;;;;;;5107527;28;20078;-77
2023/12/25 00:57:34;;;;;;;10.38;1.88;;;12.40;99.90;;;;;;5141133;27;20047;-77
2023/12/25 01:00:00;;;;;;;13.80;2.50;;;12.40;99.90;;;;;;5118004;28;20764;-77
2023/12/25 01:02:26;;;;;;;13.57;2.00;;;12.60;99.90;;;;;;5091573;28;20047;-76
2023/12/25 01:04:51;;;;;;;12.38;2.05;;;12.40;99.90;;;;;;5103399;28;20048;-77
2023/12/25 01:07:17;;;;;;;10.73;2.25;;;12.30;99.90;;;;;;5095249;28;20075;-77
2023/12/25 01:09:43;;;;;;;10.15;1.63;;;12.50;99.90;;;;;;5092787;28;20040;-78
2023/12/25 01:12:09;;;;;;;6.75;1.63;;;12.30;99.90;;;;;;5094209;28;20146;-76
2023/12/25 01:14:35;;;;;;;10.10;1.90;;;12.40;99.90;;;;;;5104826;28;20044;-78
2023/12/25 01:17:01;;;;;;;11.23;2.17;;;12.30;99.90;;;;;;5091551;28;20066;-77
2023/12/25 01:19:27;;;;;;;5.95;1.52;;;12.40;99.90;;;;;;5120347;27;20035;-77
2023/12/25 01:21:52;;;;;;;9.55;1.95;;;12.30;99.90;;;;;;5092691;28;20119;-77
2023/12/25 01:24:18;;;;;;;8.73;1.48;;;12.30;99.90;;;;;;5100132;28;20043;-77
2023/12/25 01:26:44;;;;;;;8.23;1.45;;;12.10;99.90;;;;;;5141210;27;20066;-77
2023/12/25 01:29:09;;;;;;;9.57;2.05;;;12.20;99.90;;;;;;5083992;28;20083;-77
2023/12/25 01:31:35;;;;;;;9.40;1.58;;;12.20;99.90;;;;;;5097929;28;20040;-77
2023/12/25 01:34:01;;;;;;;;;;;12.10;99.90;;;;;;5083977;28;20028;-77
2023/12/25 01:36:27;;;;;;;12.20;2.17;;;12.10;99.90;;;;;;5094233;28;19984;-78
2023/12/25 01:38:53;;;;;;;8.15;1.98;;;12.20;99.90;;;;;;5142630;27;20051;-77
2023/12/25 01:41:19;;;;;;;13.13;2.13;;;12.10;99.90;;;;;;5096317;28;20050;-77
2023/12/25 01:43:45;;;;;;;10.10;1.83;;;11.90;99.90;;;;;;5090237;28;20055;-77
2023/12/25 01:46:12;;;;;;;14.05;1.83;;;12.00;99.90;;;;;;5138050;27;20043;-74
2023/12/25 01:48:39;;;;;;;12.35;2.00;;;12.00;99.90;;;;;;5101202;28;20051;-74
2023/12/25 01:51:05;;;;;;;11.32;2.13;;;12.00;99.90;;;;;;5108201;28;20097;-75
2023/12/25 01:53:31;;;;;;;8.77;1.65;;;12.00;99.90;;;;;;5103946;28;20036;-75
2023/12/25 01:55:56;;;;;;;9.43;2.05;;;11.90;99.90;;;;;;5093674;28;20032;-75
2023/12/25 01:58:22;;;;;;;8.38;1.80;;;12.00;99.90;;;;;;5145387;27;20031;-74
2023/12/25 02:00:47;;;;;;;10.63;2.08;;;11.90;99.90;;;;;;5105299;28;20063;-73
2023/12/25 02:03:13;;;;;;;9.85;2.35;;;11.90;99.90;;;;;;5098846;28;20417;-74
2023/12/25 02:05:39;;;;;;;9.48;2.08;;;11.90;99.90;;;;;;5107357;28;20484;-74
2023/12/25 02:08:06;;;;;;;10.80;1.92;;;11.80;99.90;;;;;;5090115;28;20109;-74
2023/12/25 02:10:32;;;;;;;9.98;1.90;;;11.80;99.90;;;;;;5094636;28;20055;-74
2023/12/25 02:13:00;;;;;;;10.55;2.15;;;11.80;99.90;;;;;;5105923;28;20094;-73
2023/12/25 02:15:26;;;;;;;12.00;1.98;;;11.80;99.90;;;;;;5098356;28;20043;-73
2023/12/25 02:17:52;;;;;;;8.63;2.17;;;11.70;99.90;;;;;;5135928;27;20077;-73
2023/12/25 02:20:19;;;;;;;;;;;11.80;99.90;;;;;;5087685;28;20047;-74
2023/12/25 02:22:45;;;;;;;13.25;2.05;;;11.70;99.90;;;;;;5091986;28;19920;-73
2023/12/25 02:25:36;;;;;;;9.07;1.85;;;11.80;99.90;;;;;;5079329;28;20194;-73
2023/12/25 02:28:03;;;;;;;12.45;2.38;;;11.60;99.90;;;;;;5079322;28;20052;-74
2023/12/25 02:30:30;;;;;;;12.50;2.08;;;11.60;99.90;;;;;;5094019;28;20146;-74
2023/12/25 02:32:56;;;;;;;12.38;2.40;;;11.70;99.90;;;;;;5098337;28;20103;-73
2023/12/25 02:35:22;;;;;;;13.85;2.20;;;11.70;99.90;;;;;;5143336;27;20440;-73
2023/12/25 02:37:48;;;;;;;9.63;2.22;;;11.50;99.90;;;;;;5094447;28;20526;-77
2023/12/25 02:40:14;;;;;;;11.35;2.13;;;11.70;99.90;;;;;;5127437;27;20096;-77
2023/12/25 02:42:39;;;;;;;15.20;2.95;;;11.60;99.90;;;;;;5088323;28;20039;-76
2023/12/25 02:45:05;;;;;;;12.02;2.20;;;11.60;99.90;;;;;;5108374;28;20264;-76
2023/12/25 02:47:31;;;;;;;15.77;2.47;;;11.60;99.90;;;;;;5076082;28;20136;-77
2023/12/25 02:49:57;;;;;;;15.88;2.45;;;11.60;99.90;;;;;;5086182;28;20104;-76
2023/12/25 02:52:23;;;;;;;12.23;2.40;;;11.60;99.90;;;;;;5096570;28;20044;-77
2023/12/25 02:54:49;;;;;;;13.88;2.08;;;11.60;99.90;;;;;;5109987;28;20403;-77
2023/12/25 02:57:14;;;;;;;13.82;2.30;;;11.70;99.90;;;;;;5093939;28;20047;-77
2023/12/25 02:59:40;;;;;;;18.70;3.00;;;11.70;99.90;;;;;;5091807;28;20119;-76
2023/12/25 03:02:06;;;;;;;15.25;3.40;;;11.70;99.90;;;;;;5106252;28;20390;-76
2023/12/25 03:04:31;;;;;;;10.00;1.63;;;11.60;99.90;;;;;;5134003;27;20028;-77
2023/12/25 03:06:57;;;;;;;15.57;2.13;;;11.60;99.90;;;;;;5081206;28;20165;-77
2023/12/25 03:09:22;;;;;;;18.05;2.38;;;11.60;99.90;;;;;;5101326;28;20036;-77
2023/12/25 03:11:48;;;;;;;10.88;2.03;;;11.70;99.90;;;;;;5098688;28;20055;-77
2023/12/25 03:14:14;;;;;;;14.98;2.85;;;11.70;99.90;;;;;;5088245;28;20043;-77
2023/12/25 03:16:40;;;;;;;17.17;2.97;;;11.70;99.90;;;;;;5092144;28;20050;-76
2023/12/25 03:19:06;;;;;;;10.20;1.80;;;11.80;99.90;;;;;;5091016;28;20115;-76
2023/12/25 03:21:31;;;;;;;10.77;1.83;;;11.80;99.90;;;;;;5142389;27;20118;-76
2023/12/25 03:23:57;;;;;;;14.05;2.42;;;11.80;99.90;;;;;;5110502;28;20074;-76
2023/12/25 03:26:23;;;;;;;12.35;1.98;;;11.70;99.90;;;;;;5133921;27;20051;-75
2023/12/25 03:28:48;;;;;;;13.27;2.63;;;11.70;99.90;;;;;;5135859;27;20050;-76
2023/12/25 03:31:14;;;;;;;11.05;2.05;;;11.80;99.90;;;;;;5144582;27;20046;-77
2023/12/25 03:33:40;;;;;;;15.25;2.38;;;11.80;99.90;;;;;;5141737;27;20039;-77
2023/12/25 03:36:07;;;;;;;10.80;2.28;;;11.90;99.90;;;;;;5130831;27;20044;-73
2023/12/25 03:38:33;;;;;;;12.07;2.20;;;11.90;99.90;;;;;;5093562;28;20476;-73
2023/12/25 03:40:59;;;;;;;12.85;2.15;;;11.80;99.90;;;;;;5066428;28;20050;-74
2023/12/25 03:43:25;;;;;;;9.88;2.10;;;11.80;99.90;;;;;;5106344;28;20052;-73
2023/12/25 03:45:51;;;;;;;11.55;2.03;;;11.70;99.90;;;;;;5102642;28;20039;-75
2023/12/25 03:48:16;;;;;;;16.08;2.10;;;11.70;99.90;;;;;;5089997;28;20056;-74
2023/12/25 03:50:45;;;;;;;10.85;1.83;;;11.60;99.90;;;;;;5078807;28;20052;-75
2023/12/25 03:53:11;;;;;;;17.70;2.78;;;11.60;99.90;;;;;;5088265;28;20035;-74
2023/12/25 03:55:37;;;;;;;14.10;2.58;;;11.60;99.90;;;;;;5131092;27;20107;-73
2023/12/25 03:58:03;;;;;;;12.52;2.00;;;11.50;99.90;;;;;;5106568;28;20114;-73
2023/12/25 04:00:29;;;;;;;;;;;11.50;99.90;;;;;;5092018;28;20431;-73
2023/12/25 04:02:56;;;;;;;10.13;1.98;;;11.50;99.90;;;;;;5106421;28;20022;-73
2023/12/25 04:05:22;;;;;;;12.75;2.10;;;11.40;99.90;;;;;;5143043;27;20117;-73
2023/12/25 04:07:48;;;;;;;12.45;2.10;;;11.50;99.90;;;;;;5093439;28;20134;-75
2023/12/25 04:10:15;;;;;;;11.35;2.00;;;11.60;99.90;;;;;;5125610;27;20467;-73
2023/12/25 04:12:40;;;;;;;11.10;2.72;;;11.50;99.90;;;;;;5144104;27;20372;-74
2023/12/25 04:15:06;;;;;;;13.55;2.38;;;11.60;99.90;;;;;;5133818;27;20043;-74
2023/12/25 04:17:32;;;;;;;12.07;2.70;;;11.60;99.90;;;;;;5106439;28;20044;-73
2023/12/25 04:19:57;;;;;;;14.00;1.83;;;11.50;99.90;;;;;;5090903;28;20055;-73
2023/12/25 04:22:23;;;;;;;11.77;2.55;;;11.60;99.90;;;;;;5089582;28;20052;-73
2023/12/25 04:24:49;;;;;;;8.43;1.60;;;11.60;99.90;;;;;;5094569;28;20118;-73
2023/12/25 04:27:15;;;;;;;9.98;1.83;;;11.60;99.90;;;;;;5140340;27;20379;-73
2023/12/25 04:29:40;;;;;;;14.70;2.50;;;11.50;99.90;;;;;;5098816;28;20562;-73
2023/12/25 04:32:06;;;;;;;13.07;2.28;;;11.50;99.90;;;;;;5090943;28;20187;-73
2023/12/25 04:34:32;;;;;;;14.27;2.83;;;11.60;99.90;;;;;;5086141;28;20093;-73
2023/12/25 04:36:57;;;;;;;14.15;2.83;;;11.50;99.90;;;;;;5085561;28;20039;-73
2023/12/25 04:39:23;;;;;;;9.55;1.85;;;11.50;99.90;;;;;;5091081;28;20044;-73
2023/12/25 04:41:49;;;;;;;12.98;2.55;;;11.40;99.90;;;;;;5091232;28;20085;-73
2023/12/25 04:44:14;;;;;;;9.70;2.20;;;11.50;99.90;;;;;;5100197;28;20044;-75
2023/12/25 04:46:41;;;;;;;15.63;2.58;;;11.50;99.90;;;;;;5107854;28;20064;-73
2023/12/25 04:49:07;;;;;;;11.60;2.03;;;11.40;99.90;;;;;;5124740;27;20459;-77
2023/12/25 04:51:33;;;;;;;14.88;1.98;;;11.50;99.90;;;;;;5087962;28;20051;-76
2023/12/25 04:53:58;;;;;;;9.15;2.05;;;11.30;99.90;;;;;;5080789;28;20089;-77
2023/12/25 04:56:24;;;;;;;13.52;2.08;;;11.30;99.90;;;;;;5134915;27;20071;-77
2023/12/25 04:58:50;;;;;;;11.30;2.00;;;11.20;99.90;;;;;;5093887;28;20035;-77
2023/12/25 05:01:16;;;;;;;15.05;2.50;;;11.30;99.90;;;;;;5106799;28;20173;-76
2023/12/25 05:03:42;;;;;;;12.32;2.38;;;11.20;99.90;;;;;;5097554;28;20048;-77
2023/12/25 05:06:07;;;;;;;15.75;2.45;;;11.30;99.90;;;;;;5145925;27;20047;-77
2023/12/25 05:08:33;;;;;;;11.07;1.85;;;11.30;99.90;;;;;;5112849;28;20474;-76
2023/12/25 05:10:59;;;;;;;14.45;2.08;;;11.30;99.90;;;;;;5107772;28;20044;-77
2023/12/25 05:13:24;;;;;;;14.25;2.38;;;11.30;99.90;;;;;;5097086;28;20051;-77
2023/12/25 05:15:50;;;;;;;13.30;2.38;;;11.30;99.90;;;;;;5093022;28;20114;-77
2023/12/25 05:18:16;;;;;;;14.23;2.30;;;11.20;99.90;;;;;;5110934;28;20044;-76
2023/12/25 05:20:42;;;;;;;13.48;2.30;;;11.20;99.90;;;;;;5095800;28;20040;-77
2023/12/25 05:23:08;;;;;;;12.48;2.35;;;11.30;99.90;;;;;;5112922;28;20065;-77
2023/12/25 05:25:33;;;;;;;11.68;2.05;;;11.10;99.90;;;;;;5113513;28;20051;-76
2023/12/25 05:27:59;;;;;;;8.98;1.92;;;11.20;99.90;;;;;;5113235;28;20578;-76
2023/12/25 05:30:25;;;;;;;11.85;2.72;;;11.10;99.90;;;;;;5098754;28;20039;-77
2023/12/25 05:32:51;;;;;;;14.15;1.83;;;11.10;99.90;;;;;;5088365;28;20406;-77
2023/12/25 05:35:16;;;;;;;12.27;2.25;;;11.10;99.90;;;;;;5081142;28;20074;-76
2023/12/25 05:37:42;;;;;;;12.32;2.10;;;11.10;99.90;;;;;;5090500;28;20051;-77
2023/12/25 05:40:08;;;;;;;14.13;2.30;;;11.00;99.90;;;;;;5142865;27;20688;-76
2023/12/25 05:42:34;;;;;;;8.93;1.85;;;11.10;99.90;;;;;;5079450;28;20048;-77
2023/12/25 05:44:59;;;;;;;16.45;2.42;;;11.10;99.90;;;;;;5121928;27;20043;-76
2023/12/25 05:47:25;;;;;;;14.27;2.45;;;11.10;99.90;;;;;;5098603;28;20057;-76
2023/12/25 05:49:52;;;;;;;13.40;2.72;;;11.00;99.90;;;;;;5147420;27;20055;-76
2023/12/25 05:52:18;;;;;;;15.43;1.98;;;11.10;99.90;;;;;;5112483;28;20506;-76
2023/12/25 05:54:43;;;;;;;12.45;2.17;;;11.00;99.90;;;;;;5093111;28;20113;-76
2023/12/25 05:57:09;;;;;;;10.57;1.70;;;11.00;99.90;;;;;;5097982;28;20046;-76
2023/12/25 05:59:37;;;;;;;16.77;2.40;;;11.00;99.90;;;;;;5107180;28;20039;-76
2023/12/25 06:02:04;;;;;;;13.45;2.63;;;10.90;99.90;;;;;;5113033;28;20140;-76
2023/12/25 06:04:30;;;;;;;12.15;2.45;;;11.00;99.90;;;;;;5084966;28;20040;-76
2023/12/25 06:06:55;;;;;;;15.38;2.67;;;11.00;99.90;;;;;;5093864;28;20411;-76
2023/12/25 06:09:21;;;;;;;13.90;2.08;;;10.90;99.90;;;;;;5075724;28;20146;-76
2023/12/25 06:11:47;;;;;;;16.67;2.30;;;10.80;99.90;;;;;;5092716;28;20048;-76
2023/12/25 06:14:13;;;;;;;16.92;2.45;;;10.80;99.90;;;;;;5101388;28;20508;-76
2023/12/25 06:16:39;;;;;;;14.23;2.08;;;10.80;99.90;;;;;;5079381;28;20039;-76
2023/12/25 06:19:05;;;;;;;;;;;10.80;99.90;;;;;;5078207;28;20036;-76
2023/12/25 06:21:30;;;;;;;11.57;1.92;;;10.90;99.90;;;;;;5110588;28;20551;-76
2023/12/25 06:23:56;;;;;;;10.82;2.13;;;10.80;99.90;;;;;;5140461;27;20067;-76
2023/12/25 06:26:22;;;;;;;19.38;2.58;;;10.80;99.90;;;;;;5074741;28;20050;-76
2023/12/25 06:28:48;;;;;;;10.98;2.35;;;10.80;99.90;;;;;;5103767;28;20043;-76
2023/12/25 06:31:14;;;;;;;14.57;2.28;;;10.70;99.90;;;;;;5091099;28;20063;-76
2023/12/25 06:33:40;;;;;;;13.35;2.65;;;10.80;99.90;;;;;;5081934;28;20482;-76
2023/12/25 06:36:06;;;;;;;14.80;2.40;;;10.70;99.90;;;;;;5095223;28;20040;-76
2023/12/25 06:38:32;;;;;;;17.63;2.55;;;10.70;99.90;;;;;;5111936;28;20114;-76
2023/12/25 06:40:57;;;;;;;10.77;2.20;;;10.80;99.90;;;;;;5111965;28;20130;-76
2023/12/25 06:43:23;;;;;;;14.50;2.47;;;10.70;99.90;;;;;;5094695;28;20082;-76
2023/12/25 06:45:49;;;;;;;10.88;2.28;;;10.60;99.90;;;;;;5111682;28;20495;-76
2023/12/25 06:48:14;;;;;;;15.93;2.92;;;10.80;99.90;;;;;;5135533;27;20062;-76
2023/12/25 06:50:40;;;;;;;13.73;2.47;;;10.70;99.90;;;;;;5094767;28;20787;-77
2023/12/25 06:53:07;;;;;;;12.20;2.10;;;10.80;99.90;;;;;;5109943;28;20122;-77
2023/12/25 06:55:33;;;;;;;13.70;2.38;;;10.70;99.90;;;;;;5113184;27;20110;-74
2023/12/25 06:57:59;;;;;;;11.70;2.70;;;10.80;99.90;;;;;;5111167;28;20546;-74
2023/12/25 07:00:24;;;;;;;17.25;2.58;;;10.80;99.90;;;;;;5110890;28;20039;-74
2023/12/25 07:02:50;;;;;;;15.82;2.40;;;10.90;99.90;;;;;;5094372;27;20043;-74
2023/12/25 07:05:16;;;;;;;10.85;2.13;;;10.80;99.90;;;;;;5111228;27;20047;-75
2023/12/25 07:07:42;;;;;;;14.50;2.97;;;10.90;99.90;;;;;;5112956;27;20043;-76
2023/12/25 07:10:08;;;;;;;13.98;2.38;;;10.90;99.90;;;;;;5123211;27;20043;-77
2023/12/25 07:12:34;;;;;;;14.32;2.28;;;10.90;99.90;;;;;;5128170;27;20070;-77
2023/12/25 07:14:59;;;;;;;10.45;2.28;;;10.90;99.90;;;;;;5118580;27;20036;-76
2023/12/25 07:17:25;;;;;;;12.48;2.40;;;10.90;99.90;;;;;;5124793;27;20047;-76
2023/12/25 07:19:51;;;;;;;14.70;2.38;;;10.80;99.90;;;;;;5100115;28;20656;-77
2023/12/25 07:22:17;;;;;;;12.70;2.10;;;10.90;99.90;;;;;;5119631;27;20031;-76
2023/12/25 07:24:42;;;;;;;9.75;2.03;;;10.80;99.90;;;;;;5116635;27;20672;-76
2023/12/25 07:27:08;;;;;;;16.60;2.15;;;10.90;99.90;;;;;;5125514;27;20035;-76
2023/12/25 07:29:34;;;;;;;12.75;2.47;;;10.90;99.90;;;;;;5124749;27;20483;-76
2023/12/25 07:32:00;;;;;;;11.90;2.10;;;10.80;99.90;;;;;;5110167;27;20176;-77
2023/12/25 07:34:26;;;;;;;11.93;2.50;;;10.90;99.90;;;;;;5123374;27;20075;-77
2023/12/25 07:36:51;;;;;;;13.88;2.10;;;10.80;99.90;;;;;;5116161;27;20043;-79
2023/12/25 07:39:17;;;;;;;13.23;2.20;;;10.90;99.90;;;;;;5114544;27;20042;-78
2023/12/25 07:41:45;;;;;;;8.27;1.75;;;10.90;99.90;;;;;;5118727;27;20047;-74
2023/12/25 07:44:15;;;;;;;14.40;2.58;;;10.90;99.90;;;;;;5109714;27;20663;-77
2023/12/25 07:46:42;;;;;;;13.77;2.20;;;10.80;99.90;;;;;;5112693;27;20227;-75
2023/12/25 07:49:07;;;;;;;16.67;2.42;;;10.80;99.90;;;;;;5113133;27;20047;-75
2023/12/25 07:51:33;;;;;;;12.18;2.50;;;10.80;99.90;;;;;;5093492;28;20039;-75
2023/12/25 07:53:59;;;;;;;12.43;2.17;;;10.80;99.90;;;;;;5114748;27;20031;-75
2023/12/25 07:56:25;;;;;;;13.82;2.42;;;10.80;99.90;;;;;;5079953;28;20490;-74
2023/12/25 07:58:50;;;;;;;15.15;2.13;;;10.80;99.90;;;;;;5089374;28;20081;-75
2023/12/25 08:01:22;;;;;;;10.82;2.03;;;10.80;99.90;;;;;;5115249;27;20050;-76
2023/12/25 08:03:51;;;;;;;10.35;2.17;;;10.70;99.90;;;;;;5118173;27;20074;-76
2023/12/25 08:06:17;;;;;;;17.35;2.75;;;10.70;99.90;;;;;;5095564;28;20043;-76
2023/12/25 08:08:44;;;;;;;12.02;2.30;;;10.80;99.90;;;;;;5092628;28;20054;-75
2023/12/25 08:11:13;;;;;;;15.52;2.65;;;10.70;99.90;;;;;;5117243;27;20048;-76
2023/12/25 08:13:39;;;;;;;18.30;6.15;;;10.60;99.90;;;;;;5116582;27;20035;-75
2023/12/25 08:16:04;;;;;;;12.50;2.75;;;10.60;99.90;;;;;;5086081;27;20031;-76
2023/12/25 08:18:31;;;;;;;13.30;2.63;;;10.50;99.90;;;;;;5093938;28;20100;-75
2023/12/25 08:20:57;;;;;;;11.40;2.25;;;10.50;99.90;;;;;;5100874;28;20170;-74
2023/12/25 08:23:22;;;;;;;16.45;3.25;;;10.50;99.90;;;;;;5107608;28;20162;-75
2023/12/25 08:25:48;;;;;;;15.10;4.07;;;10.40;99.90;;;;;;5099607;28;20084;-75
2023/12/25 08:28:14;;;;;;;8.98;2.38;;;10.30;99.90;;;;;;5102117;28;20040;-75
2023/12/25 08:30:39;;;;;;;13.38;2.92;;;10.30;99.90;;;;;;5106423;28;20101;-77
2023/12/25 08:33:05;;;;;;;12.32;2.20;;;10.30;99.90;;;;;;5111238;28;20486;-74
2023/12/25 08:35:31;;;;;;;13.73;4.57;;;10.20;99.90;;;;;;5089636;28;20039;-75
2023/12/25 08:37:56;;;;;;;11.43;2.90;;;10.20;99.90;;;;;;5097279;28;20044;-75
2023/12/25 08:40:22;;;;;;;16.27;4.82;;;10.10;99.90;;;;;;5084580;28;20051;-75
2023/12/25 08:42:48;;;;;;;15.68;6.22;;;10.00;99.90;;;;;;5071005;28;20063;-75
2023/12/25 08:45:14;;;;;;;11.65;3.40;;;10.00;99.90;;;;;;5106667;28;20043;-74
2023/12/25 08:47:40;;;;;;;9.55;2.00;;;9.90;99.90;;;;;;5093200;28;20201;-74
2023/12/25 08:50:07;;;;;;;8.77;1.80;;;9.90;99.90;;;;;;5110043;28;20088;-77
2023/12/25 08:52:33;;;;;;;10.85;3.80;;;9.90;99.90;;;;;;5084262;28;20042;-75
2023/12/25 08:54:59;;;;;;;14.63;6.78;;;9.90;99.90;;;;;;5066292;28;20709;-74
2023/12/25 08:57:24;;;;;;;8.25;2.20;;;9.90;99.90;;;;;;5104398;28;21832;-74
2023/12/25 08:59:50;;;;;;;7.88;2.65;;;9.80;99.90;;;;;;5103433;28;20505;-75
2023/12/25 09:02:22;;;;;;;10.00;3.95;;;9.80;99.90;;;;;;5102860;28;20039;-74
2023/12/25 09:04:49;;;;;;;8.18;2.20;;;9.70;99.90;;;;;;5095194;28;20048;-74
2023/12/25 09:07:16;;;;;;;6.47;1.45;;;9.80;99.90;;;;;;5098889;28;20063;-76
2023/12/25 09:09:42;;;;;;;8.32;1.55;;;9.70;99.90;;;;;;5060272;28;20147;-77
2023/12/25 09:12:08;;;;;;;7.80;2.00;;;9.70;99.90;;;;;;5080492;28;20047;-75
2023/12/25 09:14:33;;;;;;;5.90;1.92;;;9.60;99.90;;;;;;5090357;28;20039;-74
2023/12/25 09:16:59;;;;;;;9.43;2.55;;;9.70;99.90;;;;;;5081269;28;20038;-74
2023/12/25 09:19:25;;;;;;;8.88;2.10;;;9.70;99.90;;;;;;5107852;28;20040;-76
2023/12/25 09:21:50;;;;;;;13.02;2.83;;;9.70;99.90;;;;;;5106063;28;20137;-74
2023/12/25 09:24:17;;;;;;;9.98;3.40;;;9.60;99.90;;;;;;5107400;28;20067;-77
2023/12/25 09:26:43;;;;;;;;;;;9.70;99.90;;;;;;5102788;28;20043;-77
2023/12/25 09:29:11;;;;;;;9.25;2.88;;;9.70;99.90;;;;;;5087105;28;19919;-74
2023/12/25 09:31:36;;;;;;;9.43;1.70;;;9.70;99.90;;;;;;5106699;27;20039;-74
2023/12/25 09:34:02;;;;;;;10.55;2.03;;;9.70;99.90;;;;;;5091774;28;20118;-74
2023/12/25 09:36:29;;;;;;;11.48;1.70;;;9.70;99.90;;;;;;5107188;28;20047;-76
2023/12/25 09:38:55;;;;;;;8.50;1.65;;;9.80;99.90;;;;;;5075015;28;20130;-76
2023/12/25 09:41:23;;;;;;;9.80;2.05;;;9.80;99.90;;;;;;5110518;28;20134;-76
2023/12/25 09:43:52;;;;;;;9.73;1.65;;;9.80;99.90;;;;;;5107699;28;20108;-76
2023/12/25 09:46:19;;;;;;;4.70;1.20;;;9.80;99.90;;;;;;5110245;27;20043;-76
2023/12/25 09:48:47;;;;;;;11.10;1.65;;;9.90;99.90;;;;;;5107693;28;20063;-76
2023/12/25 09:51:16;;;;;;;10.60;1.75;;;9.80;99.90;;;;;;5112336;27;20046;-76
2023/12/25 09:53:43;;;;;;;7.28;1.48;;;9.80;99.90;;;;;;5089123;28;20066;-74
2023/12/25 09:56:12;;;;;;;10.18;1.55;;;9.80;99.90;;;;;;5107263;27;20035;-75
2023/12/25 09:58:39;;;;;;;8.82;1.80;;;9.80;99.90;;;;;;5107733;27;20031;-75
2023/12/25 10:01:05;;;;;;;9.75;1.92;;;9.90;99.90;;;;;;5105155;28;20043;-75
2023/12/25 10:03:33;;;;;;;6.68;1.48;;;9.90;99.90;;;;;;5112276;27;20032;-75
2023/12/25 10:05:59;;;;;;;6.20;1.02;;;9.90;99.90;;;;;;5105097;27;20047;-74
2023/12/25 10:08:24;;;;;;;7.25;1.33;;;9.90;99.90;;;;;;5102448;27;20031;-74
2023/12/25 10:10:56;;;;;;;7.78;1.73;;;9.90;99.90;;;;;;5086309;28;20079;-75
2023/12/25 10:13:25;;;;;;;5.97;1.40;;;10.00;99.90;;;;;;5093833;28;20104;-75
2023/12/25 10:15:51;;;;;;;5.90;1.75;;;10.00;99.90;;;;;;5105811;27;20044;-74
2023/12/25 10:18:18;;;;;;;11.65;1.52;;;9.90;99.90;;;;;;5107810;28;20046;-75
2023/12/25 10:20:59;;;;;;;8.35;1.83;;;9.90;99.90;;;;;;5104696;28;20391;-74
2023/12/25 10:23:33;;;;;;;8.43;2.25;;;9.90;99.90;;;;;;5093535;28;20356;-74
2023/12/25 10:26:01;;;;;;;7.07;2.08;;;10.00;99.90;;;;;;5110712;27;20039;-75
2023/12/25 10:28:29;;;;;;;8.20;1.73;;;10.10;99.90;;;;;;5110298;28;20043;-74
2023/12/25 10:30:59;;;;;;;11.10;1.90;;;10.00;99.90;;;;;;5109050;27;20114;-74
2023/12/25 10:33:25;;;;;;;7.68;1.55;;;10.00;99.90;;;;;;5107208;28;20043;-74
2023/12/25 10:36:09;;;;;;;9.43;1.80;;;10.10;99.90;;;;;;5090118;28;20042;-75
2023/12/25 10:38:35;;;;;;;15.57;2.17;;;10.00;99.90;;;;;;5106626;27;20035;-75
2023/12/25 10:41:27;;;;;;;8.27;1.90;;;10.10;99.90;;;;;;5105403;28;20130;-75
2023/12/25 10:44:00;;;;;;;9.98;1.70;;;10.10;99.90;;;;;;5099043;27;20055;-75
2023/12/25 10:46:34;;;;;;;10.15;1.92;;;10.10;99.90;;;;;;5105028;28;20095;-76
2023/12/25 10:49:02;;;;;;;11.07;2.05;;;10.20;99.90;;;;;;5092863;28;20160;-77
2023/12/25 10:51:34;;;;;;;8.05;1.88;;;10.30;99.90;;;;;;5106421;27;20251;-75
2023/12/25 10:54:02;;;;;;;10.30;2.00;;;10.30;99.90;;;;;;5112692;27;20108;-75
2023/12/25 10:56:31;;;;;;;10.35;1.98;;;10.40;99.90;;;;;;5108081;27;20042;-75
2023/12/25 10:59:04;;;;;;;10.00;1.92;;;10.40;99.90;;;;;;5110845;27;20074;-75
2023/12/25 11:01:31;;;;;;;8.95;1.33;;;10.50;99.90;;;;;;5110507;27;20552;-75
2023/12/25 11:03:57;;;;;;;5.35;1.60;;;10.70;99.90;;;;;;5088689;28;20054;-76
2023/12/25 11:06:23;;;;;;;6.05;1.50;;;10.70;99.90;;;;;;5107885;27;20047;-76
2023/12/25 11:08:49;;;;;;;9.57;1.83;;;10.80;99.90;;;;;;5106266;27;20039;-76
2023/12/25 11:11:16;;;;;;;8.25;1.85;;;10.80;99.90;;;;;;5116867;27;20048;-76
2023/12/25 11:13:42;;;;;;;7.03;1.35;;;10.80;99.90;;;;;;5111138;27;20110;-76
2023/12/25 11:16:09;;;;;;;7.68;1.73;;;10.80;99.90;;;;;;5106118;28;20065;-76
2023/12/25 11:18:37;;;;;;;8.13;1.80;;;10.80;99.90;;;;;;5103785;27;20558;-76
2023/12/25 11:21:18;;;;;;;11.25;2.42;;;10.80;99.90;;;;;;5110304;27;20083;-73
2023/12/25 11:23:45;;;;;;;6.43;1.60;;;10.80;99.90;;;;;;5110756;27;20045;-74
2023/12/25 11:26:17;;;;;;;10.85;1.92;;;10.70;99.90;;;;;;5113668;27;20052;-74
2023/12/25 11:28:54;;;;;;;14.25;2.50;;;10.70;99.90;;;;;;5108027;27;20095;-79
2023/12/25 11:31:22;;;;;;;7.85;1.77;;;10.60;99.90;;;;;;5114657;27;20503;-75
2023/12/25 11:33:48;;;;;;;9.60;2.10;;;10.60;99.90;;;;;;5106959;27;20047;-76
2023/12/25 11:36:15;;;;;;;10.30;1.90;;;10.60;99.90;;;;;;5102938;28;20036;-71
2023/12/25 11:38:46;;;;;;;10.43;1.70;;;10.60;99.90;;;;;;5083048;28;20043;-72
2023/12/25 11:41:17;;;;;;;9.27;2.25;;;10.60;99.90;;;;;;5108279;27;20066;-74
2023/12/25 11:43:43;;;;;;;10.77;2.10;;;10.70;99.90;;;;;;5091193;28;20031;-73
2023/12/25 11:46:19;;;;;;;13.35;2.28;;;10.80;99.90;;;;;;5107524;27;20040;-74
2023/12/25 11:48:57;;;;;;;13.87;3.17;;;10.80;99.90;;;;;;5085693;28;20507;-78
2023/12/25 11:51:25;;;;;;;12.93;2.08;;;10.70;99.90;;;;;;5104115;27;20402;-78
2023/12/25 11:54:00;;;;;;;12.60;2.78;;;10.80;99.90;;;;;;5108312;27;20086;-72
2023/12/25 11:56:30;;;;;;;11.77;1.90;;;10.60;99.90;;;;;;5100098;27;20040;-72
2023/12/25 11:58:56;;;;;;;12.88;2.08;;;10.70;99.90;;;;;;5105857;27;20047;-72
2023/12/25 12:01:22;;;;;;;9.95;1.98;;;10.60;99.90;;;;;;5111016;27;20043;-72
2023/12/25 12:03:49;;;;;;;;;;;10.50;99.90;;;;;;5107995;27;20071;-72
2023/12/25 12:06:19;;;;;;;11.88;1.92;;;10.50;99.90;;;;;;5112337;27;19964;-73
2023/12/25 12:08:45;;;;;;;11.40;2.50;;;10.40;99.90;;;;;;5093404;27;20096;-72
2023/12/25 12:11:14;;;;;;;11.40;2.03;;;10.40;99.90;;;;;;5092229;27;20040;-72
2023/12/25 12:13:40;;;;;;;16.58;3.13;;;10.40;99.90;;;;;;5105519;27;20131;-72
2023/12/25 12:16:07;;;;;;;12.30;2.47;;;10.40;99.90;;;;;;5110723;27;20039;-72
2023/12/25 12:18:32;;;;;;;;;;;10.30;99.90;;;;;;5091160;28;20039;-72
2023/12/25 12:20:58;;;;;;;10.02;2.28;;;10.50;99.90;;;;;;5106078;27;19926;-73
2023/12/25 12:23:28;;;;;;;10.27;2.17;;;10.30;99.90;;;;;;5105494;27;20040;-72
2023/12/25 12:25:54;;;;;;;13.18;2.50;;;10.50;99.90;;;;;;5110974;28;20153;-77
2023/12/25 12:28:21;;;;;;;11.80;2.30;;;10.20;99.90;;;;;;5115287;28;20058;-77
2023/12/25 12:30:47;;;;;;;10.68;2.67;;;10.40;99.90;;;;;;5107634;28;20097;-77
2023/12/25 12:33:12;;;;;;;12.45;2.65;;;10.30;99.90;;;;;;5111854;28;20032;-72
2023/12/25 12:35:42;;;;;;;12.63;3.58;;;10.30;99.90;;;;;;5105049;28;20044;-72
2023/12/25 12:38:10;;;;;;;13.25;2.65;;;10.30;99.90;;;;;;5106245;28;20440;-72
2023/12/25 12:40:36;;;;;;;12.85;2.63;;;10.20;99.90;;;;;;5101142;28;20047;-72